createdAt,value
2019-04-28T00:02:34.356Z,97895.00
2019-04-28T00:06:35.344Z,97894.00
2019-04-28T00:10:36.293Z,97891.00
2019-04-28T00:14:37.301Z,97889.00
2019-04-28T00:18:38.206Z,97889.00
2019-04-28T00:22:57.725Z,97885.00
2019-04-28T00:27:01.822Z,97888.00
2019-04-28T00:31:03.285Z,97884.00
2019-04-28T00:35:04.474Z,97894.00
2019-04-28T00:39:06.176Z,97894.00
2019-04-28T00:43:07.251Z,97905.00
2019-04-28T00:47:08.240Z,97901.00
2019-04-28T00:51:11.606Z,97894.00
2019-04-28T00:55:12.331Z,97896.00
2019-04-28T00:59:13.222Z,97897.00
2019-04-28T01:03:14.211Z,97899.00
2019-04-28T01:07:15.099Z,97890.00
2019-04-28T01:11:15.991Z,97893.00
2019-04-28T01:15:20.212Z,97888.00
2019-04-28T01:19:26.143Z,97889.00
2019-04-28T01:23:27.035Z,97896.00
2019-04-28T01:27:30.364Z,97895.00
2019-04-28T01:31:33.384Z,97892.00
2019-04-28T01:35:34.371Z,97883.00
2019-04-28T01:39:35.333Z,97888.00
2019-04-28T01:43:36.252Z,97882.00
2019-04-28T01:47:37.292Z,97890.00
2019-04-28T01:51:38.277Z,97891.00
2019-04-28T01:55:39.314Z,97891.00
2019-04-28T01:59:42.066Z,97894.00
2019-04-28T02:03:43.131Z,97895.00
2019-04-28T02:07:44.225Z,97892.00
2019-04-28T02:11:45.322Z,97897.00
2019-04-28T02:15:46.275Z,97902.00
2019-04-28T02:19:47.376Z,97903.00
2019-04-28T02:23:49.299Z,97898.00
2019-04-28T02:27:51.164Z,97902.00
2019-04-28T02:31:52.130Z,97903.00
2019-04-28T02:36:12.882Z,97905.00
2019-04-28T02:40:13.871Z,97894.00
2019-04-28T02:44:14.855Z,97898.00
2019-04-28T02:48:17.835Z,97904.00
2019-04-28T02:52:26.368Z,97905.00
2019-04-28T02:56:27.256Z,97897.00
2019-04-28T03:00:28.305Z,97909.00
2019-04-28T03:04:30.757Z,97908.00
2019-04-28T03:08:32.056Z,97907.00
2019-04-28T03:12:33.206Z,97911.00
2019-04-28T03:16:34.600Z,97906.00
2019-04-28T03:20:35.583Z,97909.00
2019-04-28T03:24:36.564Z,97920.00
2019-04-28T03:28:45.382Z,97916.00
2019-04-28T03:32:55.007Z,97914.00
2019-04-28T03:36:51.848Z,97910.00
2019-04-28T03:40:52.986Z,97919.00
2019-04-28T03:44:55.273Z,97911.00
2019-04-28T03:48:56.162Z,97913.00
2019-04-28T03:52:57.022Z,97917.00
2019-04-28T03:57:01.054Z,97926.00
2019-04-28T04:01:03.261Z,97920.00
2019-04-28T04:05:05.409Z,97917.00
2019-04-28T04:09:06.509Z,97915.00
2019-04-28T04:13:10.941Z,97920.00
2019-04-28T04:17:16.718Z,97916.00
2019-04-28T04:21:17.794Z,97924.00
2019-04-28T04:25:20.344Z,97924.00
2019-04-28T04:29:21.767Z,97930.00
2019-04-28T04:33:22.834Z,97935.00
2019-04-28T04:37:23.715Z,97935.00
2019-04-28T04:41:24.680Z,97940.00
2019-04-28T04:45:25.584Z,97940.00
2019-04-28T04:49:26.585Z,97937.00
2019-04-28T04:53:27.444Z,97952.00
2019-04-28T04:57:32.381Z,97950.00
2019-04-28T05:01:40.804Z,97947.00
2019-04-28T05:05:44.916Z,97949.00
2019-04-28T05:09:45.790Z,97953.00
2019-04-28T05:13:46.665Z,97951.00
2019-04-28T05:17:47.558Z,97963.00
2019-04-28T05:21:49.854Z,97963.00
2019-04-28T05:25:50.927Z,97974.00
2019-04-28T05:29:51.798Z,97955.00
2019-04-28T05:33:52.662Z,97971.00
2019-04-28T05:37:53.552Z,97985.00
2019-04-28T05:41:54.547Z,97983.00
2019-04-28T05:45:55.425Z,97987.00
2019-04-28T05:50:07.182Z,97991.00
2019-04-28T05:54:12.789Z,98002.00
2019-04-28T05:58:24.621Z,97998.00
2019-04-28T06:02:33.235Z,98007.00
2019-04-28T06:06:36.014Z,98011.00
2019-04-28T06:10:37.034Z,98003.00
2019-04-28T06:14:40.158Z,98007.00
2019-04-28T06:18:42.145Z,98012.00
2019-04-28T06:22:43.373Z,98012.00
2019-04-28T06:26:44.391Z,98007.00
2019-04-28T06:30:45.357Z,98012.00
2019-04-28T06:34:46.234Z,98014.00
2019-04-28T06:38:47.108Z,98008.00
2019-04-28T06:42:47.995Z,98026.00
2019-04-28T06:46:48.991Z,98023.00
2019-04-28T06:50:49.845Z,98026.00
2019-04-28T06:54:50.724Z,98032.00
2019-04-28T06:58:59.000Z,98042.00
2019-04-28T07:02:54.489Z,98045.00
2019-04-28T07:06:55.376Z,98039.00
2019-04-28T07:10:56.306Z,98035.00
2019-04-28T07:14:57.415Z,98041.00
2019-04-28T07:18:58.432Z,98037.00
2019-04-28T07:22:59.372Z,98045.00
2019-04-28T07:27:00.466Z,98049.00
2019-04-28T07:31:01.520Z,98052.00
2019-04-28T07:35:04.322Z,98045.00
2019-04-28T07:39:27.170Z,98052.00
2019-04-28T07:43:28.190Z,98063.00
2019-04-28T07:47:29.060Z,98072.00
2019-04-28T07:51:31.866Z,98066.00
2019-04-28T07:55:32.866Z,98074.00
2019-04-28T07:59:33.838Z,98080.00
2019-04-28T08:03:34.939Z,98083.00
2019-04-28T08:07:37.295Z,98084.00
2019-04-28T08:11:38.237Z,98085.00
2019-04-28T08:15:39.327Z,98087.00
2019-04-28T08:19:40.241Z,98092.00
2019-04-28T08:23:47.320Z,98099.00
2019-04-28T08:27:43.951Z,98094.00
2019-04-28T08:31:46.733Z,98103.00
2019-04-28T08:35:47.637Z,98116.00
2019-04-28T08:39:48.626Z,98112.00
2019-04-28T08:43:49.567Z,98113.00
2019-04-28T08:47:50.677Z,98104.00
2019-04-28T08:51:51.687Z,98101.00
2019-04-28T08:55:52.660Z,98103.00
2019-04-28T08:59:53.643Z,98111.00
2019-04-28T09:03:54.982Z,98112.00
2019-04-28T09:07:56.152Z,98119.00
2019-04-28T09:11:57.130Z,98121.00
2019-04-28T09:15:58.059Z,98114.00
2019-04-28T09:19:59.098Z,98127.00
2019-04-28T09:24:00.072Z,98120.00
2019-04-28T09:28:01.289Z,98128.00
2019-04-28T09:32:02.500Z,98130.00
2019-04-28T09:36:03.650Z,98131.00
2019-04-28T09:40:08.706Z,98137.00
2019-04-28T09:44:11.560Z,98138.00
2019-04-28T09:48:12.625Z,98125.00
2019-04-28T09:52:13.520Z,98125.00
2019-04-28T09:56:14.596Z,98122.00
2019-04-28T10:00:19.761Z,98127.00
2019-04-28T10:04:19.701Z,98132.00
2019-04-28T10:08:20.801Z,98135.00
2019-04-28T10:12:27.308Z,98118.00
2019-04-28T10:16:24.840Z,98126.00
2019-04-28T10:20:25.994Z,98122.00
2019-04-28T10:24:27.248Z,98113.00
2019-04-28T10:28:28.356Z,98120.00
2019-04-28T10:32:29.307Z,98123.00
2019-04-28T10:36:30.949Z,98122.00
2019-04-28T10:40:35.640Z,98117.00
2019-04-28T10:44:38.555Z,98116.00
2019-04-28T10:48:39.551Z,98114.00
2019-04-28T10:52:40.451Z,98114.00
2019-04-28T10:56:41.481Z,98109.00
2019-04-28T11:00:42.720Z,98116.00
2019-04-28T11:04:45.634Z,98114.00
2019-04-28T11:08:51.484Z,98119.00
2019-04-28T11:12:55.015Z,98120.00
2019-04-28T11:16:55.996Z,98125.00
2019-04-28T11:20:57.328Z,98126.00
2019-04-28T11:24:58.538Z,98125.00
2019-04-28T11:28:59.452Z,98138.00
2019-04-28T11:33:11.297Z,98151.00
2019-04-28T11:37:13.405Z,98149.00
2019-04-28T11:41:14.431Z,98154.00
2019-04-28T11:45:15.737Z,98152.00
2019-04-28T11:49:16.627Z,98145.00
2019-04-28T11:53:17.701Z,98137.00
2019-04-28T11:57:18.849Z,98145.00
2019-04-28T12:01:21.181Z,98146.00
2019-04-28T12:05:34.053Z,98146.00
2019-04-28T12:09:37.825Z,98138.00
2019-04-28T12:13:40.723Z,98137.00
2019-04-28T12:17:46.581Z,98142.00
2019-04-28T12:21:47.727Z,98139.00
2019-04-28T12:25:48.650Z,98143.00
2019-04-28T12:29:49.776Z,98142.00
2019-04-28T12:33:50.768Z,98146.00
2019-04-28T12:37:51.913Z,98142.00
2019-04-28T12:41:53.074Z,98142.00
2019-04-28T12:45:54.034Z,98148.00
2019-04-28T12:49:57.118Z,98148.00
2019-04-28T12:53:59.920Z,98147.00
2019-04-28T12:58:02.966Z,98148.00
2019-04-28T13:02:06.159Z,98145.00
2019-04-28T13:06:23.163Z,98037.00
2019-04-28T13:10:28.450Z,98141.00
2019-04-28T13:14:29.614Z,98141.00
2019-04-28T13:18:30.874Z,98149.00
2019-04-28T13:22:32.303Z,98146.00
2019-04-28T13:26:33.745Z,98139.00
2019-04-28T13:30:36.192Z,98138.00
2019-04-28T13:34:39.474Z,98140.00
2019-04-28T13:38:40.461Z,98130.00
2019-04-28T13:42:41.563Z,98129.00
2019-04-28T13:46:42.541Z,98122.00
2019-04-28T13:50:43.612Z,98120.00
2019-04-28T13:54:45.829Z,98121.00
2019-04-28T13:58:48.230Z,98113.00
2019-04-28T14:02:51.084Z,98116.00
2019-04-28T14:06:53.622Z,98113.00
2019-04-28T14:10:54.593Z,98114.00
2019-04-28T14:14:55.729Z,98109.00
2019-04-28T14:18:56.597Z,98105.00
2019-04-28T14:22:57.550Z,98107.00
2019-04-28T14:26:58.593Z,98100.00
2019-04-28T14:30:59.543Z,98087.00
2019-04-28T14:35:00.769Z,98084.00
2019-04-28T14:39:04.841Z,98092.00
2019-04-28T14:43:05.964Z,98096.00
2019-04-28T14:47:07.010Z,98097.00
2019-04-28T14:51:08.157Z,98096.00
2019-04-28T14:55:26.862Z,98104.00
2019-04-28T14:59:27.723Z,98102.00
2019-04-28T15:03:30.585Z,98107.00
2019-04-28T15:07:39.494Z,98101.00
2019-04-28T15:11:45.139Z,98095.00
2019-04-28T15:15:46.119Z,98094.00
2019-04-28T15:19:47.030Z,98096.00
2019-04-28T15:23:48.538Z,98094.00
2019-04-28T15:27:50.090Z,98093.00
2019-04-28T15:31:51.008Z,98095.00
2019-04-28T15:35:52.023Z,98095.00
2019-04-28T15:39:53.153Z,98097.00
2019-04-28T15:43:54.253Z,98103.00
2019-04-28T15:47:55.333Z,98100.00
2019-04-28T15:51:56.388Z,98100.00
2019-04-28T15:56:02.173Z,98111.00
2019-04-28T16:00:06.962Z,98108.00
2019-04-28T16:04:09.789Z,98110.00
2019-04-28T16:08:11.182Z,98116.00
2019-04-28T16:12:12.203Z,98108.00
2019-04-28T16:16:13.126Z,98119.00
2019-04-28T16:20:17.485Z,98118.00
2019-04-28T16:24:18.585Z,98120.00
2019-04-28T16:28:20.383Z,98124.00
2019-04-28T16:32:21.488Z,98122.00
2019-04-28T16:36:22.504Z,98141.00
2019-04-28T16:40:26.628Z,98143.00
2019-04-28T16:44:27.691Z,98142.00
2019-04-28T16:48:28.643Z,98143.00
2019-04-28T16:52:33.747Z,98150.00
2019-04-28T16:56:39.312Z,98148.00
2019-04-28T17:00:54.053Z,98154.00
2019-04-28T17:04:55.067Z,98156.00
2019-04-28T17:08:55.954Z,98149.00
2019-04-28T17:12:56.932Z,98152.00
2019-04-28T17:16:57.846Z,98157.00
2019-04-28T17:20:58.865Z,98158.00
2019-04-28T17:24:59.947Z,98164.00
2019-04-28T17:29:00.822Z,98176.00
2019-04-28T17:33:01.750Z,98172.00
2019-04-28T17:37:03.867Z,98181.00
2019-04-28T17:41:05.377Z,98188.00
2019-04-28T17:45:07.076Z,98180.00
2019-04-28T17:49:08.176Z,98180.00
2019-04-28T17:53:09.287Z,98187.00
2019-04-28T17:57:10.266Z,98186.00
2019-04-28T18:01:15.162Z,98199.00
2019-04-28T18:05:18.072Z,98200.00
2019-04-28T18:09:19.180Z,98203.00
2019-04-28T18:13:20.511Z,98211.00
2019-04-28T18:17:23.556Z,98212.00
2019-04-28T18:21:24.780Z,98217.00
2019-04-28T18:25:26.145Z,98214.00
2019-04-28T18:29:27.346Z,98231.00
2019-04-28T18:33:46.926Z,98231.00
2019-04-28T18:37:58.523Z,98241.00
2019-04-28T18:42:01.433Z,98246.00
2019-04-28T18:46:02.675Z,98256.00
2019-04-28T18:50:05.098Z,98253.00
2019-04-28T18:54:06.777Z,98263.00
2019-04-28T18:58:08.380Z,98275.00
2019-04-28T19:02:20.463Z,98283.00
2019-04-28T19:06:21.973Z,98289.00
2019-04-28T19:10:34.330Z,98293.00
2019-04-28T19:14:40.161Z,98300.00
2019-04-28T19:18:43.038Z,98308.00
2019-04-28T19:22:45.597Z,98306.00
2019-04-28T19:26:46.581Z,98312.00
2019-04-28T19:30:48.047Z,98304.00
2019-04-28T19:34:49.310Z,98299.00
2019-04-28T19:39:02.590Z,98302.00
2019-04-28T19:42:53.358Z,98308.00
2019-04-28T19:46:58.399Z,98310.00
2019-04-28T19:50:59.453Z,98308.00
2019-04-28T19:55:05.216Z,98308.00
2019-04-28T19:59:17.007Z,98312.00
2019-04-28T20:03:18.106Z,98316.00
2019-04-28T20:07:19.012Z,98320.00
2019-04-28T20:11:20.067Z,98319.00
2019-04-28T20:35:37.818Z,98355.00
2019-04-28T20:39:38.946Z,98349.00
2019-04-28T20:43:41.126Z,98356.00
2019-04-28T20:47:42.313Z,98355.00
2019-04-28T20:51:43.302Z,98359.00
2019-04-28T20:55:44.315Z,98372.00
2019-04-28T20:59:45.287Z,98377.00
2019-04-28T21:03:48.215Z,98375.00
2019-04-28T21:07:49.116Z,98380.00
2019-04-28T21:11:50.121Z,98374.00
2019-04-28T21:15:50.980Z,98374.00
2019-04-28T21:19:59.674Z,98374.00
2019-04-28T21:24:01.126Z,98367.00
2019-04-28T21:28:02.525Z,98375.00
2019-04-28T21:32:03.699Z,98369.00
2019-04-28T21:36:04.776Z,98376.00
2019-04-28T21:40:07.566Z,98377.00
2019-04-28T21:44:27.486Z,98381.00
2019-04-28T21:48:39.230Z,98379.00
2019-04-28T21:52:40.149Z,98383.00
2019-04-28T21:56:42.262Z,98381.00
2019-04-28T22:00:46.949Z,98387.00
2019-04-28T22:04:47.961Z,98384.00
2019-04-28T22:08:48.872Z,98383.00
2019-04-28T22:12:49.870Z,98396.00
2019-04-28T22:16:50.993Z,98400.00
2019-04-28T22:20:52.325Z,98393.00
2019-04-28T22:25:00.136Z,98391.00
2019-04-28T22:29:01.146Z,98395.00
2019-04-28T22:33:02.204Z,98412.00
2019-04-28T22:37:03.461Z,98413.00
2019-04-28T22:41:04.836Z,98412.00
2019-04-28T22:45:06.293Z,98409.00
2019-04-28T22:49:07.574Z,98410.00
2019-04-28T22:53:11.267Z,98418.00
2019-04-28T22:57:30.644Z,98416.00
2019-04-28T23:01:44.453Z,98418.00
2019-04-28T23:05:47.273Z,98426.00
2019-04-28T23:09:50.276Z,98419.00
2019-04-28T23:13:51.325Z,98428.00
2019-04-28T23:17:52.240Z,98434.00
2019-04-28T23:21:55.134Z,98428.00
2019-04-28T23:25:58.080Z,98419.00
2019-04-28T23:29:58.975Z,98426.00
2019-04-28T23:33:59.848Z,98436.00
2019-04-28T23:38:01.070Z,98442.00
2019-04-28T23:42:10.247Z,98428.00
2019-04-28T23:46:11.383Z,98433.00
2019-04-28T23:50:14.585Z,98429.00
2019-04-28T23:54:15.841Z,98429.00
2019-04-28T23:58:18.012Z,98425.00
